Time;durP1;ratioP1;P1;durP2;ratioP2;P2;SDS_P1;SDS_P2;PMS_P1;PMS_P2;Temp;Humidity;BMP_temperature;BMP_pressure;BME280_temperature;BME280_humidity;BME280_pressure;Samples;Min_cycle;Max_cycle;Signal;HPM_P1;HPM_P2
2021/01/03 00:04:34;;;;;;;0.67;0.63;;;6.40;99.90;;;;;;20456336;29;20693;-71
2021/01/03 00:14:37;;;;;;;0.83;0.70;;;6.50;99.90;;;;;;20457146;29;20805;-71
2021/01/03 00:24:40;;;;;;;1.63;1.37;;;6.60;99.90;;;;;;20457434;29;20232;-71
2021/01/03 00:34:43;;;;;;;2.47;1.03;;;6.40;99.90;;;;;;20455516;28;20289;-70
2021/01/03 00:44:46;;;;;;;1.43;1.03;;;6.20;99.90;;;;;;20454344;28;20248;-70
2021/01/03 00:54:49;;;;;;;0.30;0.30;;;6.20;99.90;;;;;;20454379;28;20197;-70
2021/01/03 01:04:52;;;;;;;0.93;0.53;;;6.30;99.90;;;;;;20467592;23;20232;-76
2021/01/03 01:14:55;;;;;;;1.73;1.20;;;6.20;99.90;;;;;;20496444;28;20208;-79
2021/01/03 01:24:58;;;;;;;0.53;0.53;;;6.40;99.90;;;;;;20480597;28;20221;-76
2021/01/03 01:35:01;;;;;;;0.50;0.50;;;6.60;99.90;;;;;;20454077;29;20190;-74
2021/01/03 01:45:06;;;;;;;0.43;0.43;;;6.40;99.90;;;;;;20445040;29;20225;-76
2021/01/03 01:55:16;;;;;;;0.30;0.30;;;6.50;99.90;;;;;;20454580;29;20205;-77
2021/01/03 02:05:25;;;;;;;0.30;0.30;;;6.20;99.90;;;;;;20454510;28;20233;-78
2021/01/03 02:15:31;;;;;;;0.67;0.67;;;6.10;99.90;;;;;;20465633;28;20212;-80
2021/01/03 02:25:35;;;;;;;1.80;0.63;;;6.00;99.90;;;;;;20468671;29;20232;-77
2021/01/03 02:35:42;;;;;;;0.40;0.30;;;6.00;99.90;;;;;;20469503;28;20201;-76
2021/01/03 02:45:46;;;;;;;0.20;0.20;;;5.80;99.90;;;;;;20465910;28;20229;-74
2021/01/03 02:55:48;;;;;;;0.20;0.20;;;5.60;99.90;;;;;;20464707;28;20204;-75
2021/01/03 03:05:52;;;;;;;1.97;0.67;;;5.50;99.90;;;;;;20464938;29;20626;-74
2021/01/03 03:15:54;;;;;;;0.33;0.33;;;5.40;99.90;;;;;;20463667;29;20208;-74
2021/01/03 03:26:01;;;;;;;0.20;0.10;;;5.40;99.90;;;;;;20477522;28;20239;-74
2021/01/03 03:36:05;;;;;;;0.23;0.17;;;5.30;99.90;;;;;;20463641;29;20204;-74
2021/01/03 03:46:09;;;;;;;0.20;0.20;;;5.20;99.90;;;;;;20461322;28;20243;-74
2021/01/03 03:56:12;;;;;;;0.20;0.20;;;5.20;99.90;;;;;;20458050;29;20284;-74
2021/01/03 04:06:16;;;;;;;0.20;0.10;;;5.10;99.90;;;;;;20461479;29;21317;-77
2021/01/03 04:16:18;;;;;;;0.20;0.17;;;5.00;99.90;;;;;;20456282;29;20193;-78
2021/01/03 04:26:22;;;;;;;0.23;0.23;;;5.10;99.90;;;;;;20457368;29;20232;-79
2021/01/03 04:36:25;;;;;;;0.30;0.30;;;5.00;99.90;;;;;;20458637;28;20271;-77
2021/01/03 04:46:36;;;;;;;0.40;0.40;;;4.90;99.90;;;;;;20457593;29;20243;-77
2021/01/03 04:56:51;;;;;;;0.20;0.10;;;4.90;99.90;;;;;;20464505;28;20231;-75
2021/01/03 05:07:02;;;;;;;0.37;0.30;;;4.80;99.90;;;;;;20470900;28;20266;-72
2021/01/03 05:17:04;;;;;;;0.20;0.20;;;4.70;99.90;;;;;;20447340;28;20205;-71
2021/01/03 05:27:16;;;;;;;0.20;0.10;;;4.80;99.90;;;;;;20448810;29;20228;-71
2021/01/03 05:37:22;;;;;;;0.20;0.20;;;4.70;99.90;;;;;;20450883;29;20579;-71
2021/01/03 05:47:30;;;;;;;0.20;0.13;;;4.60;99.90;;;;;;20460102;28;20233;-71
2021/01/03 05:57:37;;;;;;;0.20;0.10;;;4.70;99.90;;;;;;20464885;28;20201;-71
2021/01/03 06:07:43;;;;;;;0.20;0.20;;;4.60;99.90;;;;;;20465294;29;20588;-71
2021/01/03 06:17:46;;;;;;;0.70;0.50;;;4.60;99.90;;;;;;20463252;29;20204;-72
2021/01/03 06:27:50;;;;;;;0.27;0.27;;;4.60;99.90;;;;;;20463853;29;20225;-72
2021/01/03 06:38:03;;;;;;;0.43;0.43;;;4.50;99.90;;;;;;20477311;28;20287;-72
2021/01/03 06:48:40;;;;;;;0.27;0.27;;;4.50;99.90;;;;;;20459418;29;20232;-72
2021/01/03 06:59:06;;;;;;;0.20;0.10;;;4.40;99.90;;;;;;20430187;28;20353;-72
2021/01/03 07:09:12;;;;;;;0.50;0.40;;;4.40;99.90;;;;;;20459604;29;20228;-72
2021/01/03 07:19:25;;;;;;;4.47;0.70;;;4.40;99.90;;;;;;20462441;29;20732;-70
2021/01/03 07:29:29;;;;;;;0.27;0.27;;;4.30;99.90;;;;;;20459136;29;20243;-71
2021/01/03 07:39:33;;;;;;;2.00;1.50;;;4.20;99.90;;;;;;20459087;29;20223;-70
2021/01/03 07:49:47;;;;;;;0.20;0.20;;;4.10;99.90;;;;;;20456628;28;20239;-72
2021/01/03 07:59:50;;;;;;;1.27;0.40;;;4.10;99.90;;;;;;20470570;28;20217;-70
2021/01/03 08:09:53;;;;;;;0.20;0.20;;;4.30;99.90;;;;;;20455798;28;20588;-72
2021/01/03 08:20:02;;;;;;;0.47;0.23;;;4.60;99.90;;;;;;20454965;29;20203;-72
2021/01/03 08:30:10;;;;;;;0.63;0.40;;;5.00;99.90;;;;;;20454922;29;20303;-72
2021/01/03 08:40:22;;;;;;;0.20;0.20;;;5.30;99.90;;;;;;20457117;29;20544;-71
2021/01/03 08:50:29;;;;;;;1.57;1.00;;;5.50;99.90;;;;;;20453471;28;20756;-71
2021/01/03 09:00:34;;;;;;;0.20;0.20;;;5.50;99.90;;;;;;20452205;28;20237;-74
2021/01/03 09:10:41;;;;;;;0.67;0.67;;;5.40;99.90;;;;;;20452388;28;20232;-73
2021/01/03 09:20:46;;;;;;;0.67;0.30;;;5.40;99.90;;;;;;20460129;28;20216;-72
2021/01/03 09:30:49;;;;;;;3.03;1.23;;;5.30;99.90;;;;;;20463160;29;20452;-72
2021/01/03 09:41:05;;;;;;;0.20;0.20;;;5.20;99.90;;;;;;20465539;29;20205;-72
2021/01/03 09:51:25;;;;;;;0.53;0.53;;;5.00;99.90;;;;;;20464074;29;20232;-72
2021/01/03 10:01:30;;;;;;;5.50;0.73;;;5.10;99.90;;;;;;20516724;28;20656;-71
2021/01/03 10:11:35;;;;;;;0.50;0.50;;;5.80;99.90;;;;;;20543556;28;20234;-71
2021/01/03 10:21:40;;;;;;;0.30;0.20;;;6.50;99.90;;;;;;20488152;28;20309;-71
2021/01/03 10:31:46;;;;;;;0.33;0.33;;;7.00;99.90;;;;;;20491153;28;20557;-71
2021/01/03 10:41:49;;;;;;;2.33;0.97;;;7.60;99.90;;;;;;20498272;28;20547;-71
2021/01/03 10:51:53;;;;;;;3.13;1.13;;;8.10;99.90;;;;;;20476411;28;20235;-71
2021/01/03 11:01:57;;;;;;;0.27;0.17;;;8.50;99.90;;;;;;20456955;29;20235;-70
2021/01/03 11:12:01;;;;;;;0.83;0.67;;;8.80;99.90;;;;;;20506288;28;20271;-71
2021/01/03 11:22:05;;;;;;;0.40;0.40;;;9.20;99.90;;;;;;20534745;28;20196;-72
2021/01/03 11:32:13;;;;;;;3.17;1.57;;;9.70;99.90;;;;;;20488110;28;20224;-71
2021/01/03 11:42:28;;;;;;;1.47;1.03;;;10.20;99.90;;;;;;20517752;28;20208;-70
2021/01/03 11:52:32;;;;;;;0.60;0.60;;;8.50;99.90;;;;;;20487584;28;20235;-73
2021/01/03 12:02:35;;;;;;;1.17;1.07;;;10.40;99.90;;;;;;20492819;28;20472;-70
2021/01/03 12:12:38;;;;;;;0.50;0.50;;;12.10;99.90;;;;;;20493316;28;20202;-73
2021/01/03 12:22:41;;;;;;;0.77;0.33;;;12.10;99.90;;;;;;20535347;28;20315;-74
2021/01/03 12:32:45;;;;;;;1.80;0.33;;;12.20;99.90;;;;;;20530791;28;20200;-73
2021/01/03 12:42:48;;;;;;;0.33;0.27;;;13.10;99.90;;;;;;20534168;28;20206;-77
2021/01/03 12:52:52;;;;;;;0.37;0.30;;;14.00;99.90;;;;;;20465123;28;20348;-78
2021/01/03 13:02:54;;;;;;;0.30;0.30;;;13.20;99.90;;;;;;20416238;28;20220;-77
2021/01/03 13:12:58;;;;;;;0.30;0.30;;;14.20;99.90;;;;;;20451382;29;20197;-76
2021/01/03 13:23:00;;;;;;;1.30;0.97;;;14.20;99.90;;;;;;20456260;29;20646;-77
2021/01/03 13:33:05;;;;;;;1.07;0.80;;;14.70;99.90;;;;;;20461754;28;20196;-76
2021/01/03 13:43:08;;;;;;;3.10;1.50;;;14.90;99.90;;;;;;20452623;29;20228;-76
2021/01/03 13:53:11;;;;;;;1.03;0.67;;;15.20;99.90;;;;;;20449766;29;20335;-78
2021/01/03 14:03:14;;;;;;;1.30;0.60;;;14.90;99.90;;;;;;20453202;28;20236;-77
2021/01/03 14:13:17;;;;;;;0.30;0.30;;;15.80;99.90;;;;;;20463682;29;20782;-78
2021/01/03 14:23:20;;;;;;;0.37;0.27;;;16.40;99.90;;;;;;20411362;29;20280;-75
2021/01/03 14:43:49;;;;;;;1.53;0.90;;;15.30;99.90;;;;;;20363465;29;20225;-75
2021/01/03 14:54:08;;;;;;;0.47;0.40;;;15.20;99.90;;;;;;20381197;29;20229;-79
2021/01/03 15:04:19;;;;;;;0.93;0.73;;;14.30;99.90;;;;;;20380142;29;20595;-77
2021/01/03 15:14:25;;;;;;;1.03;0.97;;;13.60;99.90;;;;;;20379702;29;20323;-78
2021/01/03 15:24:29;;;;;;;0.80;0.80;;;13.80;99.90;;;;;;20378666;29;20193;-77
2021/01/03 15:34:39;;;;;;;0.80;0.30;;;14.30;99.90;;;;;;20378640;29;20237;-78
2021/01/03 15:44:50;;;;;;;0.30;0.20;;;14.10;99.90;;;;;;20376140;29;20204;-77
2021/01/03 15:54:52;;;;;;;0.77;0.77;;;13.80;99.90;;;;;;20312328;29;20322;-78
2021/01/03 16:04:56;;;;;;;1.13;0.63;;;12.60;99.90;;;;;;20297931;29;20462;-77
2021/01/03 16:14:58;;;;;;;0.57;0.50;;;11.00;99.90;;;;;;20298021;29;20248;-78
2021/01/03 16:25:18;;;;;;;1.20;0.47;;;10.00;99.90;;;;;;20351581;29;20201;-75
2021/01/03 16:35:31;;;;;;;1.90;1.40;;;8.90;99.90;;;;;;20372530;29;20267;-74
2021/01/03 16:45:46;;;;;;;7.47;2.07;;;8.10;99.90;;;;;;20371458;29;20197;-75
2021/01/03 16:55:58;;;;;;;0.70;0.30;;;7.70;99.90;;;;;;20319870;29;20787;-75
2021/01/03 17:06:10;;;;;;;0.73;0.73;;;6.90;99.90;;;;;;20293453;29;20608;-74
2021/01/03 17:16:15;;;;;;;2.17;1.87;;;6.30;99.90;;;;;;20364533;29;20225;-76
2021/01/03 17:26:31;;;;;;;3.27;1.90;;;5.80;99.90;;;;;;20369776;29;20194;-76
2021/01/03 17:36:56;;;;;;;1.83;1.07;;;5.50;99.90;;;;;;20368065;29;20233;-75
2021/01/03 17:47:14;;;;;;;2.43;1.73;;;5.70;99.90;;;;;;20383038;29;20815;-75
2021/01/03 17:57:17;;;;;;;1.23;1.10;;;5.30;99.90;;;;;;20385710;29;20698;-77
2021/01/03 18:07:26;;;;;;;0.97;0.70;;;5.00;99.90;;;;;;20385949;29;20202;-77
2021/01/03 18:28:00;;;;;;;1.70;1.60;;;4.90;99.90;;;;;;22036099;23;20751;-76
2021/01/03 18:49:37;;;;;;;2.97;2.67;;;4.80;99.90;;;;;;20457959;28;20545;-76
2021/01/03 18:59:40;;;;;;;3.67;1.50;;;4.70;99.90;;;;;;20460446;28;20247;-79
2021/01/03 19:09:44;;;;;;;6.53;2.13;;;4.50;99.90;;;;;;20460199;28;20678;-77
2021/01/03 19:19:48;;;;;;;3.10;1.73;;;4.70;99.90;;;;;;20457911;28;20582;-76
2021/01/03 19:29:51;;;;;;;1.50;1.40;;;4.70;99.90;;;;;;20465567;28;20989;-76
2021/01/03 19:39:54;;;;;;;2.03;1.47;;;4.60;99.90;;;;;;20537351;28;20239;-78
2021/01/03 19:49:58;;;;;;;0.90;0.90;;;4.60;99.90;;;;;;20539551;28;20271;-76
2021/01/03 20:00:00;;;;;;;9.00;1.63;;;4.40;99.90;;;;;;20535849;28;20283;-76
2021/01/03 20:10:08;;;;;;;0.83;0.83;;;4.30;99.90;;;;;;20535123;28;20957;-77
2021/01/03 20:30:55;;;;;;;2.17;2.00;;;4.20;99.90;;;;;;20374386;29;20279;-75
2021/01/03 20:40:57;;;;;;;0.40;0.40;;;4.20;99.90;;;;;;20393908;29;20712;-76
2021/01/03 20:51:01;;;;;;;2.40;2.00;;;4.20;99.90;;;;;;20378021;29;20279;-76
2021/01/03 21:01:06;;;;;;;1.37;0.83;;;4.50;99.90;;;;;;20377197;29;20408;-76
2021/01/03 21:11:10;;;;;;;4.80;2.67;;;4.50;99.90;;;;;;20376193;29;20643;-76
2021/01/03 21:21:18;;;;;;;3.23;2.80;;;4.50;99.90;;;;;;20401066;29;20248;-77
2021/01/03 21:31:34;;;;;;;8.03;2.30;;;4.40;99.90;;;;;;20401212;29;20197;-80
2021/01/03 21:41:49;;;;;;;4.03;1.70;;;4.50;99.90;;;;;;20405265;29;20759;-82
2021/01/03 21:52:04;;;;;;;0.70;0.70;;;4.20;99.90;;;;;;20400518;29;20688;-74
2021/01/03 22:02:39;;;;;;;2.33;1.13;;;4.20;99.90;;;;;;20382579;29;20336;-73
2021/01/03 22:13:15;;;;;;;1.37;1.27;;;4.20;99.90;;;;;;20319027;29;20591;-73
2021/01/03 22:23:50;;;;;;;0.50;0.37;;;4.00;99.90;;;;;;20307548;29;20244;-73
2021/01/03 22:33:58;;;;;;;3.03;0.77;;;3.90;99.90;;;;;;20306291;29;20216;-73
2021/01/03 22:44:24;;;;;;;1.70;1.60;;;3.80;99.90;;;;;;20304937;29;20245;-72
2021/01/03 22:54:44;;;;;;;0.63;0.63;;;3.90;99.90;;;;;;20304964;29;20203;-72
2021/01/03 23:04:56;;;;;;;0.60;0.60;;;3.90;99.90;;;;;;20303276;29;20229;-72
2021/01/03 23:15:05;;;;;;;2.63;0.97;;;3.90;99.90;;;;;;20302411;29;20210;-73
2021/01/03 23:25:14;;;;;;;1.83;1.17;;;3.90;99.90;;;;;;20302634;29;20714;-74
2021/01/03 23:35:18;;;;;;;6.67;2.00;;;3.80;99.90;;;;;;20379410;29;20562;-74
2021/01/03 23:45:28;;;;;;;3.87;0.97;;;3.50;99.90;;;;;;20389367;29;20250;-73
2021/01/03 23:55:50;;;;;;;1.30;1.20;;;3.80;99.90;;;;;;20380744;29;20213;-73
